createdAt,value
2023-05-21T00:00:12.897Z,51494.03
2023-05-21T00:02:41.513Z,51486.00
2023-05-21T00:05:14.368Z,51469.97
2023-05-21T00:07:43.348Z,51486.00
2023-05-21T00:10:13.358Z,51526.13
2023-05-21T00:12:42.575Z,51500.03
2023-05-21T00:15:11.785Z,51492.03
2023-05-21T00:17:40.603Z,51492.03
2023-05-21T00:20:09.988Z,51475.97
2023-05-21T00:22:38.434Z,51522.13
2023-05-21T00:25:07.672Z,51500.03
2023-05-21T00:27:37.480Z,51494.03
2023-05-21T00:30:07.382Z,51512.09
2023-05-21T00:32:36.743Z,51534.16
2023-05-21T00:35:06.111Z,51520.09
2023-05-21T00:37:35.032Z,51514.09
2023-05-21T00:40:04.803Z,51502.06
2023-05-21T00:42:33.699Z,51496.03
2023-05-21T00:45:04.342Z,51536.16
2023-05-21T00:47:33.209Z,51504.06
2023-05-21T00:50:03.122Z,51518.09
2023-05-21T00:52:32.071Z,51496.03
2023-05-21T00:55:00.545Z,51516.09
2023-05-21T00:57:29.190Z,51484.00
2023-05-21T00:59:57.752Z,51552.19
2023-05-21T01:02:27.845Z,51520.09
2023-05-21T01:04:56.630Z,51524.13
2023-05-21T01:07:25.315Z,51498.03
2023-05-21T01:09:55.124Z,51502.06
2023-05-21T01:12:24.950Z,51540.16
2023-05-21T01:14:54.062Z,51486.00
2023-05-21T01:17:24.326Z,51524.13
2023-05-21T01:19:54.890Z,51538.16
2023-05-21T01:22:24.914Z,51524.13
2023-05-21T01:24:56.302Z,51524.13
2023-05-21T01:27:24.844Z,51518.09
2023-05-21T01:29:53.345Z,51536.16
2023-05-21T01:32:30.143Z,51524.13
2023-05-21T01:35:05.677Z,51508.06
2023-05-21T01:37:36.280Z,51512.09
2023-05-21T01:40:12.023Z,51536.16
2023-05-21T01:42:43.781Z,51532.13
2023-05-21T01:45:13.464Z,51526.13
2023-05-21T01:47:42.853Z,51564.25
2023-05-21T01:50:12.196Z,51514.09
2023-05-21T01:52:40.597Z,51536.16
2023-05-21T01:55:11.093Z,51560.22
2023-05-21T01:57:39.794Z,51528.13
2023-05-21T02:00:10.381Z,51580.28
2023-05-21T02:02:43.966Z,51544.19
2023-05-21T02:05:12.721Z,51524.13
2023-05-21T02:07:41.569Z,51508.06
2023-05-21T02:10:12.537Z,51504.06
2023-05-21T02:12:40.976Z,51540.16
2023-05-21T02:15:10.851Z,51524.13
2023-05-21T02:17:39.317Z,51548.19
2023-05-21T02:20:13.776Z,51516.09
2023-05-21T02:22:43.812Z,51560.22
2023-05-21T02:25:15.803Z,51512.09
2023-05-21T02:27:46.773Z,51566.25
2023-05-21T02:30:16.591Z,51514.09
2023-05-21T02:32:45.393Z,51534.16
2023-05-21T02:35:14.423Z,51534.16
2023-05-21T02:37:43.856Z,51558.22
2023-05-21T02:40:14.569Z,51544.19
2023-05-21T02:42:43.105Z,51520.09
2023-05-21T02:45:15.775Z,51528.13
2023-05-21T02:47:46.363Z,51564.25
2023-05-21T02:50:17.206Z,51572.25
2023-05-21T02:52:52.281Z,51564.25
2023-05-21T02:55:22.831Z,51524.13
2023-05-21T02:57:52.321Z,51534.16
2023-05-21T03:00:20.960Z,51538.16
2023-05-21T03:02:49.499Z,51560.22
2023-05-21T03:05:18.117Z,51524.13
2023-05-21T03:07:47.560Z,51552.19
2023-05-21T03:10:16.814Z,51548.19
2023-05-21T03:12:47.164Z,51554.22
2023-05-21T03:15:16.022Z,51510.06
2023-05-21T03:17:44.710Z,51520.09
2023-05-21T03:20:16.464Z,51534.16
2023-05-21T03:22:46.070Z,51528.13
2023-05-21T03:25:14.617Z,51576.28
2023-05-21T03:27:43.176Z,51528.13
2023-05-21T03:30:28.558Z,51558.22
2023-05-21T03:33:17.379Z,51590.31
2023-05-21T03:35:46.541Z,51522.13
2023-05-21T03:38:15.010Z,51524.13
2023-05-21T03:40:43.761Z,51596.34
2023-05-21T03:43:12.219Z,51608.38
2023-05-21T03:45:44.312Z,51524.13
2023-05-21T03:48:42.224Z,51544.19
2023-05-21T03:51:13.154Z,51550.19
2023-05-21T03:53:41.627Z,51584.28
2023-05-21T03:56:10.067Z,51526.13
2023-05-21T03:58:38.669Z,51530.13
2023-05-21T04:01:10.633Z,51552.19
2023-05-21T04:03:40.728Z,51534.16
2023-05-21T04:06:11.924Z,51548.19
2023-05-21T04:08:41.343Z,51560.22
2023-05-21T04:11:10.532Z,51552.19
2023-05-21T04:13:39.732Z,51524.13
2023-05-21T04:16:09.793Z,51572.25
2023-05-21T04:18:38.816Z,51518.09
2023-05-21T04:21:07.454Z,51532.13
2023-05-21T04:23:36.777Z,51536.16
2023-05-21T04:26:09.613Z,51520.09
2023-05-21T04:28:42.107Z,51542.16
2023-05-21T04:31:13.762Z,51524.13
2023-05-21T04:33:45.823Z,51540.16
2023-05-21T04:36:17.088Z,51522.13
2023-05-21T04:38:46.308Z,51556.22
2023-05-21T04:41:14.784Z,51516.09
2023-05-21T04:43:44.190Z,51558.22
2023-05-21T04:46:16.113Z,51512.09
2023-05-21T04:48:45.049Z,51522.13
2023-05-21T04:51:14.978Z,51514.09
2023-05-21T04:53:43.476Z,51544.19
2023-05-21T04:56:11.967Z,51520.09
2023-05-21T04:58:40.536Z,51562.22
2023-05-21T05:01:09.086Z,51492.03
2023-05-21T05:03:39.015Z,51538.16
2023-05-21T05:06:09.133Z,51500.03
2023-05-21T05:08:37.779Z,51536.16
2023-05-21T05:11:06.221Z,51514.09
2023-05-21T05:13:34.998Z,51512.09
2023-05-21T05:16:03.651Z,51488.00
2023-05-21T05:18:32.194Z,51498.03
2023-05-21T05:21:02.921Z,51516.09
2023-05-21T05:23:31.388Z,51479.97
2023-05-21T05:25:59.992Z,51439.88
2023-05-21T05:28:29.200Z,51486.00
2023-05-21T05:31:00.139Z,51477.97
2023-05-21T05:33:29.655Z,51488.00
2023-05-21T05:35:58.194Z,51500.03
2023-05-21T05:38:28.154Z,51494.03
2023-05-21T05:40:56.676Z,51482.00
2023-05-21T05:43:26.309Z,51465.94
2023-05-21T05:45:54.818Z,51437.84
2023-05-21T05:48:23.303Z,51423.81
2023-05-21T05:50:54.784Z,51457.91
2023-05-21T05:53:26.426Z,51407.78
2023-05-21T05:55:57.205Z,51411.78
2023-05-21T05:58:25.931Z,51421.81
2023-05-21T06:01:15.079Z,51411.78
2023-05-21T06:03:43.936Z,51371.66
2023-05-21T06:06:16.941Z,51323.53
2023-05-21T06:08:46.196Z,51309.47
2023-05-21T06:11:18.985Z,51285.41
2023-05-21T06:13:47.524Z,51253.31
2023-05-21T06:16:18.504Z,51251.31
2023-05-21T06:18:47.161Z,51249.31
2023-05-21T06:21:15.867Z,51269.38
2023-05-21T06:23:46.848Z,51183.13
2023-05-21T06:26:19.010Z,51211.19
2023-05-21T06:28:49.102Z,51205.19
2023-05-21T06:31:17.622Z,51207.19
2023-05-21T06:33:46.792Z,51249.31
2023-05-21T06:36:16.225Z,51255.31
2023-05-21T06:38:44.796Z,51225.22
2023-05-21T06:41:13.344Z,51253.31
2023-05-21T06:44:06.367Z,51263.34
2023-05-21T06:46:46.881Z,51259.34
2023-05-21T06:49:15.491Z,51271.38
2023-05-21T06:51:45.127Z,51225.22
2023-05-21T06:54:14.852Z,51259.34
2023-05-21T06:56:43.788Z,51229.25
2023-05-21T06:59:13.620Z,51271.38
2023-05-21T07:01:43.886Z,51255.31
2023-05-21T07:04:12.470Z,51265.34
2023-05-21T07:06:42.529Z,51223.22
2023-05-21T07:09:10.946Z,51245.28
2023-05-21T07:11:40.118Z,51211.19
2023-05-21T07:14:10.878Z,51211.19
2023-05-21T07:16:41.324Z,51215.22
2023-05-21T07:19:10.108Z,51169.06
2023-05-21T07:21:40.917Z,51171.06
2023-05-21T07:24:09.766Z,51124.94
2023-05-21T07:26:41.384Z,51181.09
2023-05-21T07:29:10.236Z,51157.03
2023-05-21T07:31:38.692Z,51167.06
2023-05-21T07:34:09.662Z,51163.06
2023-05-21T07:36:38.134Z,51171.06
2023-05-21T07:39:06.708Z,51187.13
2023-05-21T07:41:35.402Z,51173.09
2023-05-21T07:44:07.880Z,51171.06
2023-05-21T07:46:40.835Z,51219.22
2023-05-21T07:49:16.499Z,51159.03
2023-05-21T07:51:46.362Z,51143.00
2023-05-21T07:54:14.850Z,51114.91
2023-05-21T07:56:43.466Z,51145.00
2023-05-21T07:59:21.138Z,51078.81
2023-05-21T08:01:49.870Z,51149.00
2023-05-21T08:04:20.080Z,51141.00
2023-05-21T08:06:49.532Z,51171.06
2023-05-21T08:09:19.292Z,51070.78
2023-05-21T08:11:48.332Z,51110.91
2023-05-21T08:14:17.467Z,51080.81
2023-05-21T08:16:46.179Z,51072.78
2023-05-21T08:19:14.998Z,51062.75
2023-05-21T08:21:47.591Z,51062.75
2023-05-21T08:24:16.899Z,50996.56
2023-05-21T08:26:47.508Z,50990.56
2023-05-21T08:29:16.257Z,50932.38
2023-05-21T08:31:44.792Z,50938.41
2023-05-21T08:34:13.248Z,50884.25
2023-05-21T08:36:49.980Z,51044.72
2023-05-21T08:39:38.733Z,50994.56
2023-05-21T08:42:15.853Z,51026.66
2023-05-21T08:44:52.865Z,50950.44
2023-05-21T08:47:26.962Z,51018.63
2023-05-21T08:49:56.945Z,51012.63
2023-05-21T08:52:27.642Z,50968.50
2023-05-21T08:54:58.973Z,50964.47
2023-05-21T08:57:28.252Z,50966.50
2023-05-21T08:59:57.979Z,50988.56
2023-05-21T09:02:30.914Z,50994.56
2023-05-21T09:05:03.405Z,50930.38
2023-05-21T09:07:40.549Z,50930.38
2023-05-21T09:10:38.261Z,50942.41
2023-05-21T09:13:08.096Z,51026.66
2023-05-21T09:15:37.458Z,50988.56
2023-05-21T09:18:06.534Z,50954.47
2023-05-21T09:20:46.288Z,50914.34
2023-05-21T09:23:18.709Z,50890.28
2023-05-21T09:25:49.164Z,50902.31
2023-05-21T09:28:27.628Z,50930.38
2023-05-21T09:32:12.165Z,50968.50
2023-05-21T09:34:42.398Z,51094.84
2023-05-21T09:37:23.545Z,51090.84
2023-05-21T09:39:58.515Z,51040.69
2023-05-21T09:42:30.892Z,50974.50
2023-05-21T09:44:59.439Z,50942.41
2023-05-21T09:47:28.189Z,51006.59
2023-05-21T09:49:59.108Z,50966.50
2023-05-21T09:52:28.256Z,51016.63
2023-05-21T09:54:58.232Z,51070.78
2023-05-21T09:57:27.213Z,51098.88
2023-05-21T09:59:55.914Z,51082.81
2023-05-21T10:02:26.663Z,51014.63
2023-05-21T10:04:56.960Z,50966.50
2023-05-21T10:07:27.593Z,51008.59
2023-05-21T10:09:58.393Z,50930.38
2023-05-21T10:12:31.570Z,50896.28
2023-05-21T10:15:02.162Z,50874.22
2023-05-21T10:17:31.477Z,50773.94
2023-05-21T10:20:01.550Z,50753.88
2023-05-21T10:22:30.437Z,50711.78
2023-05-21T10:25:03.211Z,50767.94
2023-05-21T10:27:33.306Z,50798.00
2023-05-21T10:30:02.720Z,50834.13
2023-05-21T10:32:32.710Z,50900.31
2023-05-21T10:35:02.264Z,50886.25
2023-05-21T10:37:31.561Z,50850.16
2023-05-21T10:40:01.658Z,50950.44
2023-05-21T10:43:11.823Z,50942.41
2023-05-21T10:45:54.082Z,50950.44
2023-05-21T10:48:36.574Z,50946.44
2023-05-21T10:51:19.544Z,51030.66
2023-05-21T10:54:17.512Z,51082.81
2023-05-21T10:56:56.038Z,51060.75
2023-05-21T10:59:37.489Z,51080.81
2023-05-21T11:02:07.846Z,51110.91
2023-05-21T11:04:39.873Z,50940.41
2023-05-21T11:07:08.738Z,50970.50
2023-05-21T11:09:37.231Z,50860.19
2023-05-21T11:12:08.012Z,50794.00
2023-05-21T11:14:39.921Z,50773.94
2023-05-21T11:17:14.385Z,50790.00
2023-05-21T11:19:44.119Z,50808.03
2023-05-21T11:22:23.196Z,50824.09
2023-05-21T11:24:52.587Z,50846.16
2023-05-21T11:27:34.461Z,50974.50
2023-05-21T11:30:06.358Z,50814.06
2023-05-21T11:32:40.153Z,50785.97
2023-05-21T11:35:09.294Z,50753.88
2023-05-21T11:37:41.462Z,50771.94
2023-05-21T11:40:21.600Z,50790.00
2023-05-21T11:42:54.321Z,50785.97
2023-05-21T11:45:24.586Z,50761.91
2023-05-21T11:47:53.562Z,50711.78
2023-05-21T11:50:22.196Z,50683.69
2023-05-21T11:52:53.411Z,50717.78
2023-05-21T11:55:29.334Z,50733.84
2023-05-21T11:58:00.046Z,50711.78
2023-05-21T12:00:28.535Z,50689.72
2023-05-21T12:02:58.895Z,50743.84
2023-05-21T12:05:28.037Z,50820.06
2023-05-21T12:07:56.723Z,50731.81
2023-05-21T12:10:25.358Z,50757.91
2023-05-21T12:12:56.311Z,50709.75
2023-05-21T12:15:30.305Z,50759.91
2023-05-21T12:17:59.247Z,50729.81
2023-05-21T12:20:29.019Z,50763.91
2023-05-21T12:23:00.864Z,50735.84
2023-05-21T12:25:30.414Z,50771.94
2023-05-21T12:28:01.330Z,50751.88
2023-05-21T12:30:31.680Z,50709.75
2023-05-21T12:33:01.953Z,50695.72
2023-05-21T12:35:31.623Z,50721.81
2023-05-21T12:38:03.223Z,50685.69
2023-05-21T12:40:39.940Z,50761.91
2023-05-21T12:43:08.858Z,50757.91
2023-05-21T12:45:40.140Z,50737.84
2023-05-21T12:48:12.550Z,50753.88
2023-05-21T12:50:42.156Z,50693.72
2023-05-21T12:53:12.893Z,50715.78
2023-05-21T12:55:41.886Z,50735.84
2023-05-21T12:58:15.926Z,50741.84
2023-05-21T13:00:45.973Z,50671.66
2023-05-21T13:03:14.615Z,50743.84
2023-05-21T13:05:43.131Z,50647.59
2023-05-21T13:08:14.021Z,50689.72
2023-05-21T13:10:42.677Z,50866.19
2023-05-21T13:13:11.110Z,50741.84
2023-05-21T13:15:39.622Z,50779.97
2023-05-21T13:18:09.861Z,50727.81
2023-05-21T13:20:38.943Z,50725.81
2023-05-21T13:23:09.821Z,50673.66
2023-05-21T13:25:40.007Z,50685.69
2023-05-21T13:28:10.344Z,50707.75
2023-05-21T13:30:39.610Z,50767.94
2023-05-21T13:33:12.067Z,50834.13
2023-05-21T13:35:40.789Z,50924.38
2023-05-21T13:38:09.229Z,50874.22
2023-05-21T13:40:39.051Z,50938.41
2023-05-21T13:43:07.793Z,50942.41
2023-05-21T13:45:37.573Z,50892.28
2023-05-21T13:48:06.947Z,50894.28
2023-05-21T13:50:37.109Z,50922.38
2023-05-21T13:53:05.807Z,50922.38
2023-05-21T13:55:34.678Z,50936.41
2023-05-21T13:58:03.962Z,50944.44
2023-05-21T14:00:32.737Z,50904.31
2023-05-21T14:03:01.548Z,50898.28
2023-05-21T14:05:30.293Z,50956.47
2023-05-21T14:08:00.166Z,50934.41
2023-05-21T14:10:28.868Z,50940.41
2023-05-21T14:13:04.207Z,50968.50
2023-05-21T14:15:36.906Z,50984.53
2023-05-21T14:18:07.951Z,50982.53
2023-05-21T14:20:37.542Z,50986.53
2023-05-21T14:23:07.363Z,51006.59
2023-05-21T14:25:36.167Z,51018.63
2023-05-21T14:28:04.979Z,51006.59
2023-05-21T14:30:33.678Z,51042.72
2023-05-21T14:33:03.159Z,51036.69
2023-05-21T14:35:31.619Z,51010.63
2023-05-21T14:38:00.059Z,51032.69
2023-05-21T14:40:29.879Z,51058.75
2023-05-21T14:42:58.580Z,51050.72
2023-05-21T14:45:27.357Z,51070.78
2023-05-21T14:47:55.774Z,51066.78
2023-05-21T14:50:24.207Z,51030.66
2023-05-21T14:52:52.589Z,51038.69
2023-05-21T14:55:23.512Z,51024.66
2023-05-21T14:57:53.272Z,51086.84
2023-05-21T15:00:21.779Z,51086.84
2023-05-21T15:02:50.322Z,51088.84
2023-05-21T15:05:19.094Z,51078.81
2023-05-21T15:07:48.220Z,51070.78
2023-05-21T15:10:18.569Z,51056.75
2023-05-21T15:12:47.479Z,51026.66
2023-05-21T15:15:17.794Z,51062.75
2023-05-21T15:17:46.418Z,51040.69
2023-05-21T15:20:14.902Z,51066.78
2023-05-21T15:22:43.435Z,51070.78
2023-05-21T15:25:12.167Z,51062.75
2023-05-21T15:27:41.099Z,51042.72
2023-05-21T15:30:10.231Z,51044.72
2023-05-21T15:32:39.979Z,51070.78
2023-05-21T15:35:09.176Z,51024.66
2023-05-21T15:37:37.853Z,51034.69
2023-05-21T15:40:08.714Z,51088.84
2023-05-21T15:42:37.151Z,51066.78
2023-05-21T15:45:06.364Z,51062.75
2023-05-21T15:47:34.787Z,51068.78
2023-05-21T15:50:04.799Z,51098.88
2023-05-21T15:52:33.210Z,51098.88
2023-05-21T15:55:02.147Z,51078.81
2023-05-21T15:57:31.246Z,51090.84
2023-05-21T16:00:00.049Z,51084.81
2023-05-21T16:02:30.625Z,51072.78
2023-05-21T16:04:59.584Z,51102.88
2023-05-21T16:07:31.451Z,51114.91
2023-05-21T16:10:00.040Z,51108.91
2023-05-21T16:12:28.633Z,51134.97
2023-05-21T16:14:57.040Z,51116.91
2023-05-21T16:17:25.609Z,51124.94
2023-05-21T16:19:54.195Z,51102.88
2023-05-21T16:22:23.732Z,51134.97
2023-05-21T16:24:55.783Z,51132.97
2023-05-21T16:27:24.914Z,51159.03
2023-05-21T16:29:53.291Z,51114.91
2023-05-21T16:32:22.064Z,51138.97
2023-05-21T16:34:50.779Z,51114.91
2023-05-21T16:37:19.378Z,51122.94
2023-05-21T16:39:47.846Z,51128.94
2023-05-21T16:42:17.807Z,51124.94
2023-05-21T16:44:46.273Z,51134.97
2023-05-21T16:47:15.167Z,51120.94
2023-05-21T16:49:43.552Z,51155.03
2023-05-21T16:52:14.927Z,51132.97
2023-05-21T16:54:48.506Z,51153.03
2023-05-21T16:57:18.270Z,51120.94
2023-05-21T16:59:46.660Z,51138.97
2023-05-21T17:02:15.326Z,51120.94
2023-05-21T17:04:43.762Z,51130.97
2023-05-21T17:07:13.376Z,51167.06
2023-05-21T17:09:41.756Z,51165.06
2023-05-21T17:12:10.344Z,51100.88
2023-05-21T17:14:40.956Z,51114.91
2023-05-21T17:17:09.528Z,51118.94
2023-05-21T17:19:38.697Z,51106.88
2023-05-21T17:22:10.301Z,51130.97
2023-05-21T17:24:39.134Z,51128.94
2023-05-21T17:27:07.497Z,51116.91
2023-05-21T17:29:35.907Z,51195.16
2023-05-21T17:32:06.437Z,51134.97
2023-05-21T17:34:34.901Z,51171.06
2023-05-21T17:37:03.333Z,51130.97
2023-05-21T17:39:31.857Z,51175.09
2023-05-21T17:42:00.880Z,51130.97
2023-05-21T17:44:29.339Z,51159.03
2023-05-21T17:46:57.810Z,51175.09
2023-05-21T17:49:27.567Z,51161.03
2023-05-21T17:51:56.146Z,51130.97
2023-05-21T17:54:24.848Z,51147.00
2023-05-21T17:56:53.626Z,51187.13
2023-05-21T17:59:22.209Z,51155.03
2023-05-21T18:01:50.715Z,51191.13
2023-05-21T18:04:19.501Z,51161.03
2023-05-21T18:06:49.600Z,51161.03
2023-05-21T18:09:18.591Z,51173.09
2023-05-21T18:11:52.954Z,51126.94
2023-05-21T18:14:21.464Z,51161.03
2023-05-21T18:16:50.180Z,51181.09
2023-05-21T18:19:19.941Z,51173.09
2023-05-21T18:21:50.122Z,51181.09
2023-05-21T18:24:18.597Z,51185.13
2023-05-21T18:26:47.045Z,51165.06
2023-05-21T18:29:15.744Z,51175.09
2023-05-21T18:31:45.184Z,51209.19
2023-05-21T18:34:16.717Z,51223.22
2023-05-21T18:36:45.521Z,51211.19
2023-05-21T18:39:15.709Z,51219.22
2023-05-21T18:41:44.732Z,51225.22
2023-05-21T18:44:13.403Z,51221.22
2023-05-21T18:46:42.197Z,51241.28
2023-05-21T18:49:10.786Z,51207.19
2023-05-21T18:51:40.197Z,51231.25
2023-05-21T18:54:09.865Z,51253.31
2023-05-21T18:56:42.858Z,51207.19
2023-05-21T18:59:12.370Z,51269.38
2023-05-21T19:01:40.861Z,51249.31
2023-05-21T19:04:09.524Z,51207.19
2023-05-21T19:06:40.566Z,51215.22
2023-05-21T19:09:09.025Z,51271.38
2023-05-21T19:11:39.573Z,51259.34
2023-05-21T19:14:08.007Z,51275.38
2023-05-21T19:16:36.480Z,51255.31
2023-05-21T19:19:05.874Z,51255.31
2023-05-21T19:21:34.508Z,51275.38
2023-05-21T19:24:05.439Z,51297.44
2023-05-21T19:26:34.349Z,51279.41
2023-05-21T19:29:04.114Z,51251.31
2023-05-21T19:31:34.778Z,51299.44
2023-05-21T19:34:10.445Z,51311.50
2023-05-21T19:36:52.022Z,51327.53
2023-05-21T19:39:21.955Z,51311.50
2023-05-21T19:41:51.554Z,51303.47
2023-05-21T19:44:21.338Z,51289.41
2023-05-21T19:46:49.884Z,51307.47
2023-05-21T19:49:19.906Z,51331.53
2023-05-21T19:51:49.610Z,51323.53
2023-05-21T19:54:18.411Z,51295.44
2023-05-21T19:56:46.808Z,51323.53
2023-05-21T19:59:15.334Z,51317.50
2023-05-21T20:01:45.918Z,51291.44
2023-05-21T20:04:14.833Z,51323.53
2023-05-21T20:06:43.424Z,51335.56
2023-05-21T20:09:13.280Z,51323.53
2023-05-21T20:11:42.167Z,51331.53
2023-05-21T20:14:10.680Z,51345.59
2023-05-21T20:16:39.513Z,51289.41
2023-05-21T20:19:10.751Z,51341.56
2023-05-21T20:21:40.484Z,51315.50
2023-05-21T20:24:11.333Z,51355.63
2023-05-21T20:26:39.920Z,51339.56
2023-05-21T20:29:08.891Z,51347.59
2023-05-21T20:31:37.847Z,51337.56
2023-05-21T20:34:08.778Z,51347.59
2023-05-21T20:36:40.261Z,51367.66
2023-05-21T20:39:09.357Z,51359.63
2023-05-21T20:41:38.753Z,51375.69
2023-05-21T20:44:07.937Z,51355.63
2023-05-21T20:46:38.139Z,51393.72
2023-05-21T20:49:07.039Z,51343.59
2023-05-21T20:51:35.439Z,51357.63
2023-05-21T20:54:05.693Z,51399.75
2023-05-21T20:56:42.300Z,51415.78
2023-05-21T20:59:11.804Z,51385.72
2023-05-21T21:01:41.361Z,51387.72
2023-05-21T21:04:10.388Z,51343.59
2023-05-21T21:06:40.454Z,51381.69
2023-05-21T21:09:13.517Z,51407.78
2023-05-21T21:11:41.916Z,51407.78
2023-05-21T21:14:10.372Z,51405.75
2023-05-21T21:16:39.077Z,51425.81
2023-05-21T21:19:07.991Z,51413.78
2023-05-21T21:21:36.500Z,51405.75
2023-05-21T21:24:05.640Z,51389.72
2023-05-21T21:26:35.395Z,51399.75
2023-05-21T21:29:04.039Z,51431.84
2023-05-21T21:31:32.574Z,51415.78
2023-05-21T21:34:01.341Z,51393.72
2023-05-21T21:36:29.729Z,51421.81
2023-05-21T21:38:58.285Z,51437.84
2023-05-21T21:41:26.806Z,51407.78
2023-05-21T21:43:57.019Z,51447.88
2023-05-21T21:46:26.147Z,51419.81
2023-05-21T21:48:55.185Z,51421.81
2023-05-21T21:51:23.966Z,51439.88
2023-05-21T21:53:52.468Z,51391.72
2023-05-21T21:56:22.236Z,51423.81
2023-05-21T21:58:50.678Z,51441.88
2023-05-21T22:01:21.277Z,51407.78
2023-05-21T22:03:49.917Z,51447.88
2023-05-21T22:06:18.370Z,51435.84
2023-05-21T22:08:47.057Z,51415.78
2023-05-21T22:11:15.654Z,51427.84
2023-05-21T22:13:44.272Z,51419.81
2023-05-21T22:16:12.864Z,51411.78
2023-05-21T22:18:42.931Z,51417.81
2023-05-21T22:21:14.148Z,51475.97
2023-05-21T22:23:43.047Z,51447.88
2023-05-21T22:26:11.498Z,51419.81
2023-05-21T22:28:40.100Z,51455.91
2023-05-21T22:31:09.053Z,51439.88
2023-05-21T22:33:37.652Z,51439.88
2023-05-21T22:36:08.273Z,51419.81
2023-05-21T22:38:36.728Z,51413.78
2023-05-21T22:41:05.491Z,51439.88
2023-05-21T22:43:34.934Z,51504.06
2023-05-21T22:46:03.557Z,51447.88
2023-05-21T22:48:32.510Z,51431.84
2023-05-21T22:51:01.969Z,51488.00
2023-05-21T22:53:32.455Z,51461.94
2023-05-21T22:56:00.993Z,51427.84
2023-05-21T22:58:29.433Z,51475.97
2023-05-21T23:00:57.987Z,51482.00
2023-05-21T23:03:26.698Z,51427.84
2023-05-21T23:05:55.224Z,51449.91
2023-05-21T23:08:23.611Z,51467.94
2023-05-21T23:10:53.681Z,51473.97
2023-05-21T23:13:22.306Z,51455.91
2023-05-21T23:15:51.327Z,51459.94
2023-05-21T23:18:19.878Z,51461.94
2023-05-21T23:20:48.366Z,51469.97
2023-05-21T23:23:16.982Z,51469.97
2023-05-21T23:25:46.678Z,51467.94
2023-05-21T23:28:16.672Z,51449.91
2023-05-21T23:30:45.170Z,51397.75
2023-05-21T23:33:13.784Z,51512.09
2023-05-21T23:35:42.558Z,51459.94
2023-05-21T23:38:10.955Z,51447.88
2023-05-21T23:40:39.546Z,51447.88
2023-05-21T23:43:08.195Z,51477.97
2023-05-21T23:45:38.248Z,51447.88
2023-05-21T23:48:07.989Z,51508.06
2023-05-21T23:50:36.671Z,51463.94
2023-05-21T23:53:05.456Z,51457.91
2023-05-21T23:55:33.870Z,51506.06
2023-05-21T23:58:03.798Z,51479.97
